createdAt,value
2019-04-14T00:01:08.649Z,8.73
2019-04-14T00:03:43.738Z,8.37
2019-04-14T00:06:13.630Z,8.40
2019-04-14T00:08:43.737Z,8.83
2019-04-14T00:11:13.121Z,9.00
2019-04-14T00:13:43.420Z,8.50
2019-04-14T00:16:12.694Z,8.80
2019-04-14T00:18:42.614Z,8.43
2019-04-14T00:21:12.878Z,9.03
2019-04-14T00:23:43.391Z,9.07
2019-04-14T00:26:31.883Z,8.67
2019-04-14T00:29:02.644Z,8.27
2019-04-14T00:31:32.868Z,9.17
2019-04-14T00:34:05.108Z,9.70
2019-04-14T00:36:48.140Z,9.53
2019-04-14T00:39:20.648Z,9.50
2019-04-14T00:42:19.100Z,8.40
2019-04-14T00:44:58.141Z,8.90
2019-04-14T00:47:50.790Z,8.53
2019-04-14T00:50:08.641Z,9.87
2019-04-14T00:52:39.359Z,8.47
2019-04-14T00:55:09.798Z,9.00
2019-04-14T00:57:39.853Z,9.00
2019-04-14T01:00:11.021Z,9.07
2019-04-14T01:02:40.801Z,8.70
2019-04-14T01:05:10.917Z,9.60
2019-04-14T01:07:41.322Z,8.60
2019-04-14T01:10:12.671Z,8.90
2019-04-14T01:12:43.173Z,9.37
2019-04-14T01:15:13.709Z,8.40
2019-04-14T01:17:43.875Z,9.53
2019-04-14T01:20:14.620Z,9.47
2019-04-14T01:22:44.609Z,9.20
2019-04-14T01:25:14.911Z,9.70
2019-04-14T01:27:45.068Z,8.67
2019-04-14T01:30:15.413Z,9.10
2019-04-14T01:32:45.769Z,9.77
2019-04-14T01:35:15.935Z,8.57
2019-04-14T01:37:46.455Z,8.60
2019-04-14T01:40:16.393Z,7.37
2019-04-14T01:42:46.413Z,8.70
2019-04-14T01:45:18.605Z,8.77
2019-04-14T01:47:48.986Z,8.10
2019-04-14T01:50:21.287Z,9.13
2019-04-14T01:53:03.707Z,8.73
2019-04-14T01:55:51.235Z,8.40
2019-04-14T01:58:29.301Z,8.73
2019-04-14T02:01:19.417Z,9.00
2019-04-14T02:03:49.935Z,7.90
2019-04-14T02:06:20.218Z,8.40
2019-04-14T02:08:50.300Z,9.30
2019-04-14T02:11:21.045Z,8.33
2019-04-14T02:13:50.919Z,8.40
2019-04-14T02:16:32.301Z,8.73
2019-04-14T02:18:54.036Z,9.70
2019-04-14T02:21:25.843Z,8.63
2019-04-14T02:23:56.160Z,9.23
2019-04-14T02:26:26.246Z,8.50
2019-04-14T02:28:57.071Z,8.63
2019-04-14T02:31:53.131Z,8.77
2019-04-14T02:34:39.128Z,8.50
2019-04-14T02:37:02.454Z,9.00
2019-04-14T02:39:29.405Z,8.37
2019-04-14T02:42:07.212Z,8.87
2019-04-14T02:47:18.371Z,8.60
2019-04-14T02:49:36.326Z,8.80
2019-04-14T02:52:04.450Z,8.17
2019-04-14T02:54:46.498Z,8.90
2019-04-14T02:57:12.525Z,8.97
2019-04-14T03:04:45.004Z,8.23
2019-04-14T03:07:16.166Z,9.60
2019-04-14T03:09:56.286Z,9.27
2019-04-14T03:12:16.902Z,8.60
2019-04-14T03:14:53.641Z,8.50
2019-04-14T03:17:58.352Z,8.30
2019-04-14T03:20:39.576Z,9.27
2019-04-14T03:23:19.094Z,8.80
2019-04-14T03:25:42.988Z,8.03
2019-04-14T03:36:50.354Z,8.37
2019-04-14T03:41:29.496Z,8.73
2019-04-14T03:43:43.178Z,8.80
2019-04-14T03:46:27.328Z,9.10
2019-04-14T03:49:08.157Z,9.40
2019-04-14T03:51:28.076Z,8.23
2019-04-14T03:53:53.505Z,9.07
2019-04-14T03:56:37.873Z,9.00
2019-04-14T03:59:08.460Z,8.57
2019-04-14T04:01:39.121Z,9.07
2019-04-14T04:04:09.668Z,8.30
2019-04-14T04:06:39.933Z,8.40
2019-04-14T04:09:10.447Z,9.17
2019-04-14T04:11:41.194Z,8.20
2019-04-14T04:14:11.746Z,8.30
2019-04-14T04:17:03.979Z,8.00
2019-04-14T04:19:51.453Z,8.90
2019-04-14T04:22:50.548Z,9.30
2019-04-14T04:25:38.264Z,8.70
2019-04-14T04:28:16.705Z,8.50
2019-04-14T04:30:54.097Z,9.77
2019-04-14T04:33:30.515Z,8.80
2019-04-14T04:36:03.325Z,9.37
2019-04-14T04:38:44.339Z,8.90
2019-04-14T04:41:14.695Z,8.93
2019-04-14T04:43:45.150Z,9.57
2019-04-14T04:46:15.610Z,8.30
2019-04-14T04:48:58.250Z,9.83
2019-04-14T04:51:18.126Z,8.67
2019-04-14T04:53:48.337Z,8.20
2019-04-14T04:56:18.687Z,9.40
2019-04-14T04:58:48.502Z,8.10
2019-04-14T05:01:18.827Z,7.67
2019-04-14T05:03:49.277Z,8.00
2019-04-14T05:06:54.969Z,8.20
2019-04-14T05:09:40.572Z,7.77
2019-04-14T05:12:15.412Z,8.40
2019-04-14T05:14:50.207Z,8.00
2019-04-14T05:17:21.238Z,8.60
2019-04-14T05:19:51.905Z,7.80
2019-04-14T05:22:22.392Z,8.27
2019-04-14T05:24:52.884Z,7.53
2019-04-14T05:27:23.249Z,7.70
2019-04-14T05:29:53.632Z,7.83
2019-04-14T05:32:26.079Z,7.70
2019-04-14T05:34:56.522Z,7.30
2019-04-14T05:37:26.875Z,7.20
2019-04-14T05:39:56.963Z,6.50
2019-04-14T05:42:27.514Z,6.90
2019-04-14T05:44:58.125Z,6.83
2019-04-14T05:47:28.338Z,7.30
2019-04-14T05:49:59.253Z,7.75
2019-04-14T05:52:30.202Z,6.80
2019-04-14T05:55:00.092Z,6.90
2019-04-14T05:57:30.611Z,6.63
2019-04-14T06:00:01.647Z,7.10
2019-04-14T06:02:33.503Z,6.43
2019-04-14T06:05:03.731Z,6.17
2019-04-14T06:07:33.455Z,6.97
2019-04-14T06:10:03.476Z,7.10
2019-04-14T06:12:33.551Z,6.40
2019-04-14T06:15:03.528Z,6.40
2019-04-14T06:17:33.279Z,6.73
2019-04-14T06:20:03.226Z,7.33
2019-04-14T06:22:33.248Z,6.13
2019-04-14T06:25:03.091Z,6.50
2019-04-14T06:27:32.758Z,6.23
2019-04-14T06:30:09.510Z,6.20
2019-04-14T06:32:41.883Z,6.37
2019-04-14T06:35:31.055Z,6.77
2019-04-14T06:38:05.864Z,6.30
2019-04-14T06:40:48.410Z,5.80
2019-04-14T06:43:18.440Z,5.97
2019-04-14T06:45:48.174Z,6.40
2019-04-14T06:48:17.931Z,6.37
2019-04-14T06:50:47.635Z,6.80
2019-04-14T06:53:17.343Z,6.47
2019-04-14T06:55:47.127Z,6.30
2019-04-14T06:58:16.848Z,6.13
2019-04-14T07:00:47.838Z,6.47
2019-04-14T07:03:17.515Z,6.40
2019-04-14T07:05:47.151Z,6.00
2019-04-14T07:08:16.839Z,9.53
2019-04-14T07:10:48.707Z,6.40
2019-04-14T07:13:19.659Z,6.67
2019-04-14T07:15:49.579Z,5.63
2019-04-14T07:18:19.260Z,6.23
2019-04-14T07:20:48.967Z,5.70
2019-04-14T07:23:18.621Z,6.27
2019-04-14T07:25:48.390Z,5.70
2019-04-14T07:28:18.508Z,5.43
2019-04-14T07:31:06.083Z,6.47
2019-04-14T07:33:48.808Z,5.27
2019-04-14T07:36:39.556Z,5.73
2019-04-14T07:39:27.551Z,6.23
2019-04-14T07:42:12.858Z,5.00
2019-04-14T07:44:50.357Z,5.50
2019-04-14T07:47:46.676Z,6.00
2019-04-14T07:50:44.719Z,5.57
2019-04-14T07:53:32.089Z,5.43
2019-04-14T07:56:16.015Z,5.30
2019-04-14T07:58:54.767Z,5.13
2019-04-14T08:01:32.126Z,5.30
2019-04-14T08:04:18.990Z,5.30
2019-04-14T08:06:56.754Z,5.53
2019-04-14T08:09:26.368Z,5.47
2019-04-14T08:11:55.975Z,5.00
2019-04-14T08:14:25.604Z,5.07
2019-04-14T08:16:55.475Z,5.10
2019-04-14T08:19:25.094Z,5.30
2019-04-14T08:21:54.695Z,4.93
2019-04-14T08:24:24.330Z,5.73
2019-04-14T08:26:55.007Z,4.87
2019-04-14T08:29:24.679Z,5.70
2019-04-14T08:31:54.392Z,4.80
2019-04-14T08:34:24.088Z,5.00
2019-04-14T08:36:53.712Z,5.20
2019-04-14T08:39:23.624Z,5.00
2019-04-14T08:42:17.740Z,5.60
2019-04-14T08:44:49.609Z,6.20
2019-04-14T08:47:28.351Z,5.47
2019-04-14T08:50:14.796Z,5.53
2019-04-14T08:53:09.600Z,6.03
2019-04-14T08:55:48.079Z,5.03
2019-04-14T08:58:32.629Z,4.97
2019-04-14T09:01:22.948Z,5.03
2019-04-14T09:04:15.666Z,4.90
2019-04-14T09:06:53.183Z,5.50
2019-04-14T09:09:35.983Z,5.33
2019-04-14T09:12:15.733Z,7.07
2019-04-14T09:14:55.964Z,6.30
2019-04-14T09:17:15.087Z,5.97
2019-04-14T09:19:44.715Z,6.27
2019-04-14T09:22:14.337Z,5.30
2019-04-14T09:24:43.943Z,6.10
2019-04-14T09:27:13.928Z,5.80
2019-04-14T09:29:43.543Z,5.50
2019-04-14T09:32:13.995Z,6.07
2019-04-14T09:34:43.677Z,6.17
2019-04-14T09:37:13.368Z,5.90
2019-04-14T09:39:43.119Z,6.33
2019-04-14T09:42:12.725Z,5.57
2019-04-14T09:44:42.311Z,5.70
2019-04-14T09:47:11.939Z,5.57
2019-04-14T09:49:41.526Z,5.80
2019-04-14T09:52:11.147Z,5.20
2019-04-14T09:54:40.752Z,5.83
2019-04-14T09:57:10.414Z,5.90
2019-04-14T09:59:40.027Z,5.43
2019-04-14T10:02:09.718Z,5.37
2019-04-14T10:04:39.427Z,5.73
2019-04-14T10:07:09.067Z,5.70
2019-04-14T10:09:38.780Z,5.43
2019-04-14T10:12:08.518Z,4.50
2019-04-14T10:14:38.126Z,5.43
2019-04-14T10:17:07.800Z,4.50
2019-04-14T10:19:37.398Z,5.07
2019-04-14T10:22:07.050Z,5.07
2019-04-14T10:24:36.675Z,6.40
2019-04-14T10:27:06.315Z,5.67
2019-04-14T10:29:35.949Z,6.83
2019-04-14T10:32:05.977Z,6.43
2019-04-14T10:34:35.589Z,7.13
2019-04-14T10:37:05.220Z,6.90
2019-04-14T10:39:34.852Z,6.90
2019-04-14T10:42:04.611Z,6.83
2019-04-14T10:44:34.219Z,7.70
2019-04-14T10:47:03.925Z,7.03
2019-04-14T10:49:33.551Z,7.70
2019-04-14T10:52:03.188Z,7.63
2019-04-14T10:54:32.784Z,8.27
2019-04-14T10:57:02.412Z,7.90
2019-04-14T10:59:32.087Z,7.87
2019-04-14T11:02:01.729Z,8.33
2019-04-14T11:04:31.328Z,7.90
2019-04-14T11:07:14.519Z,7.73
2019-04-14T11:09:44.128Z,7.37
2019-04-14T11:12:13.830Z,8.20
2019-04-14T11:14:43.502Z,7.83
2019-04-14T11:17:13.553Z,7.23
2019-04-14T11:19:43.149Z,8.20
2019-04-14T11:22:13.074Z,6.97
2019-04-14T11:24:42.695Z,7.10
2019-04-14T11:27:12.341Z,7.03
2019-04-14T11:29:41.967Z,7.37
2019-04-14T11:32:30.703Z,8.20
2019-04-14T11:35:25.967Z,7.40
2019-04-14T11:38:29.875Z,7.87
2019-04-14T11:41:01.708Z,7.40
2019-04-14T11:43:31.393Z,7.70
2019-04-14T11:46:03.555Z,7.10
2019-04-14T11:48:35.344Z,6.80
2019-04-14T11:51:05.091Z,7.50
2019-04-14T11:53:35.008Z,6.60
2019-04-14T11:56:05.043Z,6.60
2019-04-14T11:58:35.000Z,6.47
2019-04-14T12:01:37.184Z,7.23
2019-04-14T12:04:24.484Z,6.83
2019-04-14T12:07:05.753Z,7.00
2019-04-14T12:09:57.682Z,6.20
2019-04-14T12:12:28.363Z,6.97
2019-04-14T12:14:57.973Z,6.40
2019-04-14T12:17:27.596Z,7.00
2019-04-14T12:19:57.189Z,6.90
2019-04-14T12:22:26.879Z,6.80
2019-04-14T12:24:56.485Z,7.40
2019-04-14T12:27:26.126Z,6.90
2019-04-14T12:29:56.733Z,6.67
2019-04-14T12:32:26.720Z,6.30
2019-04-14T12:34:56.354Z,7.03
2019-04-14T12:37:25.947Z,6.50
2019-04-14T12:39:55.556Z,7.43
2019-04-14T12:42:53.379Z,6.80
2019-04-14T12:45:40.974Z,6.67
2019-04-14T12:48:26.281Z,7.23
2019-04-14T12:51:02.924Z,6.43
2019-04-14T12:53:32.585Z,7.30
2019-04-14T12:56:02.183Z,6.63
2019-04-14T12:58:41.916Z,6.53
2019-04-14T13:01:11.935Z,7.63
2019-04-14T13:03:42.070Z,7.60
2019-04-14T13:06:11.362Z,7.57
2019-04-14T13:08:40.476Z,7.77
2019-04-14T13:11:09.563Z,7.30
2019-04-14T13:13:38.672Z,7.50
2019-04-14T13:16:07.766Z,8.90
2019-04-14T13:18:36.919Z,6.73
2019-04-14T13:21:06.035Z,6.50
2019-04-14T13:23:36.224Z,7.20
2019-04-14T13:26:05.401Z,6.70
2019-04-14T13:28:34.535Z,7.00
2019-04-14T13:31:03.640Z,6.90
2019-04-14T13:33:32.740Z,6.97
2019-04-14T13:36:01.907Z,9.07
2019-04-14T13:38:31.048Z,8.03
2019-04-14T13:41:00.130Z,7.60
2019-04-14T13:43:29.264Z,7.93
2019-04-14T13:45:59.908Z,8.63
2019-04-14T13:48:29.169Z,7.70
2019-04-14T13:50:58.243Z,9.00
2019-04-14T13:53:27.363Z,7.60
2019-04-14T13:55:56.460Z,7.73
2019-04-14T13:58:25.568Z,7.23
2019-04-14T14:00:54.669Z,8.40
2019-04-14T14:03:23.784Z,7.60
2019-04-14T14:05:52.876Z,8.70
2019-04-14T14:08:22.073Z,7.53
2019-04-14T14:10:54.740Z,7.77
2019-04-14T14:13:33.720Z,8.40
2019-04-14T14:16:16.204Z,7.30
2019-04-14T14:19:03.995Z,8.70
2019-04-14T14:21:45.655Z,7.20
2019-04-14T14:24:46.217Z,6.90
2019-04-14T14:27:15.518Z,8.20
2019-04-14T14:29:44.631Z,7.30
2019-04-14T14:32:24.627Z,8.00
2019-04-14T14:34:53.776Z,8.30
2019-04-14T14:37:22.872Z,8.20
2019-04-14T14:39:51.984Z,7.97
2019-04-14T14:42:22.036Z,8.23
2019-04-14T14:45:10.343Z,8.33
2019-04-14T14:47:41.155Z,8.37
2019-04-14T14:50:31.460Z,8.60
2019-04-14T14:53:11.556Z,7.87
2019-04-14T14:55:31.372Z,7.97
2019-04-14T14:58:00.469Z,8.50
2019-04-14T15:00:33.789Z,7.70
2019-04-14T15:03:03.288Z,8.50
2019-04-14T15:05:33.406Z,8.10
2019-04-14T15:08:02.516Z,8.20
2019-04-14T15:10:31.671Z,7.97
2019-04-14T15:13:00.773Z,7.87
2019-04-14T15:15:29.876Z,8.17
2019-04-14T15:17:59.131Z,7.33
2019-04-14T15:20:28.248Z,8.27
2019-04-14T15:22:57.342Z,7.80
2019-04-14T15:25:26.451Z,8.67
2019-04-14T15:27:55.588Z,6.80
2019-04-14T15:30:24.771Z,7.07
2019-04-14T15:32:53.912Z,7.00
2019-04-14T15:35:23.059Z,7.60
2019-04-14T15:37:52.167Z,6.00
2019-04-14T15:40:21.352Z,6.50
2019-04-14T15:42:50.463Z,6.23
2019-04-14T15:45:19.567Z,6.70
2019-04-14T15:47:48.671Z,5.70
2019-04-14T15:50:17.982Z,7.73
2019-04-14T15:52:47.362Z,6.47
2019-04-14T15:55:17.843Z,6.07
2019-04-14T15:58:12.675Z,5.80
2019-04-14T16:00:53.288Z,5.83
2019-04-14T16:03:33.883Z,5.63
2019-04-14T16:06:19.379Z,6.13
2019-04-14T16:09:16.807Z,5.20
2019-04-14T16:12:10.988Z,5.60
2019-04-14T16:14:46.242Z,5.20
2019-04-14T16:17:33.483Z,6.67
2019-04-14T16:20:10.268Z,5.07
2019-04-14T16:22:39.457Z,6.03
2019-04-14T16:25:08.613Z,5.53
2019-04-14T16:27:55.813Z,5.97
2019-04-14T16:30:44.242Z,5.33
2019-04-14T16:33:23.444Z,5.70
2019-04-14T16:35:53.589Z,5.13
2019-04-14T16:38:23.212Z,5.70
2019-04-14T16:40:52.307Z,5.70
2019-04-14T16:43:21.405Z,5.30
2019-04-14T16:45:50.586Z,5.20
2019-04-14T16:48:19.780Z,5.23
2019-04-14T16:50:48.916Z,5.17
2019-04-14T16:53:27.839Z,4.80
2019-04-14T16:56:03.055Z,4.73
2019-04-14T16:58:50.336Z,5.23
2019-04-14T17:01:26.784Z,4.43
2019-04-14T17:03:55.916Z,5.33
2019-04-14T17:06:25.100Z,4.93
2019-04-14T17:08:54.189Z,4.67
2019-04-14T17:11:23.301Z,5.03
2019-04-14T17:14:00.849Z,4.90
2019-04-14T17:16:41.926Z,4.80
2019-04-14T17:19:33.334Z,5.07
2019-04-14T17:22:10.693Z,4.70
2019-04-14T17:25:05.027Z,5.30
2019-04-14T17:27:53.667Z,4.93
2019-04-14T17:30:42.844Z,5.30
2019-04-14T17:33:43.267Z,5.37
2019-04-14T17:36:32.692Z,5.40
2019-04-14T17:39:08.895Z,5.23
2019-04-14T17:41:51.037Z,5.43
2019-04-14T17:44:25.154Z,5.07
2019-04-14T17:47:09.427Z,5.70
2019-04-14T17:49:54.536Z,5.40
2019-04-14T17:52:41.276Z,5.23
2019-04-14T17:55:19.261Z,5.10
2019-04-14T17:58:07.647Z,5.40
2019-04-14T18:00:43.500Z,5.33
2019-04-14T18:03:19.768Z,6.00
2019-04-14T18:05:58.067Z,5.87
2019-04-14T18:08:37.312Z,5.40
2019-04-14T18:11:12.223Z,5.30
2019-04-14T18:13:49.374Z,4.90
2019-04-14T18:16:26.079Z,5.43
2019-04-14T18:19:07.699Z,5.20
2019-04-14T18:21:36.892Z,5.60
2019-04-14T18:24:06.007Z,5.20
2019-04-14T18:26:35.568Z,6.00
2019-04-14T18:29:22.701Z,7.13
2019-04-14T18:32:06.104Z,6.43
2019-04-14T18:35:03.415Z,5.23
2019-04-14T18:37:54.202Z,5.63
2019-04-14T18:40:27.710Z,5.80
2019-04-14T18:43:07.855Z,4.83
2019-04-14T18:45:43.376Z,5.57
2019-04-14T18:48:19.256Z,7.20
2019-04-14T18:51:02.579Z,5.60
2019-04-14T18:53:49.764Z,6.90
2019-04-14T18:56:36.735Z,5.60
2019-04-14T18:59:24.188Z,9.90
2019-04-14T19:01:53.328Z,5.40
2019-04-14T19:04:22.472Z,5.30
2019-04-14T19:06:51.573Z,5.20
2019-04-14T19:09:20.697Z,5.60
2019-04-14T19:11:59.340Z,5.57
2019-04-14T19:14:34.255Z,5.40
2019-04-14T19:17:08.166Z,5.53
2019-04-14T19:19:38.583Z,5.60
2019-04-14T19:22:07.670Z,5.30
2019-04-14T19:24:36.783Z,5.40
2019-04-14T19:27:05.882Z,4.67
2019-04-14T19:29:35.008Z,5.93
2019-04-14T19:32:04.444Z,5.13
2019-04-14T19:34:33.551Z,5.10
2019-04-14T19:37:02.661Z,5.53
2019-04-14T19:39:31.780Z,5.80
2019-04-14T19:42:00.867Z,4.73
2019-04-14T19:44:30.331Z,5.50
2019-04-14T19:46:59.508Z,5.97
2019-04-14T19:49:28.619Z,5.30
2019-04-14T19:51:57.710Z,5.30
2019-04-14T19:54:26.828Z,5.90
2019-04-14T19:56:55.911Z,5.63
2019-04-14T19:59:25.024Z,4.73
2019-04-14T20:01:54.125Z,4.97
2019-04-14T20:04:23.239Z,4.63
2019-04-14T20:06:52.334Z,5.03
2019-04-14T20:09:21.453Z,5.20
2019-04-14T20:11:50.551Z,4.93
2019-04-14T20:14:19.703Z,4.90
2019-04-14T20:16:57.145Z,4.40
2019-04-14T20:19:48.253Z,4.30
2019-04-14T20:22:22.753Z,4.40
2019-04-14T20:25:07.520Z,5.07
2019-04-14T20:27:44.688Z,4.50
2019-04-14T20:30:20.508Z,4.40
2019-04-14T20:32:50.223Z,4.43
2019-04-14T20:35:19.334Z,4.40
2019-04-14T20:37:48.419Z,4.50
2019-04-14T20:40:17.696Z,4.10
2019-04-14T20:42:46.776Z,4.40
2019-04-14T20:45:16.056Z,3.87
2019-04-14T20:47:45.139Z,4.43
2019-04-14T20:50:14.495Z,4.03
2019-04-14T20:52:43.594Z,3.60
2019-04-14T20:55:13.238Z,3.80
2019-04-14T20:57:42.407Z,3.93
2019-04-14T21:00:11.861Z,3.40
2019-04-14T21:03:03.373Z,3.53
2019-04-14T21:05:52.594Z,2.90
2019-04-14T21:08:53.316Z,4.00
2019-04-14T21:11:29.000Z,3.27
2019-04-14T21:14:23.189Z,3.67
2019-04-14T21:17:05.216Z,2.90
2019-04-14T21:19:43.079Z,3.00
2019-04-14T21:22:30.399Z,3.20
2019-04-14T21:25:08.819Z,2.87
2019-04-14T21:27:55.822Z,2.90
2019-04-14T21:30:30.795Z,2.73
2019-04-14T21:33:31.323Z,3.23
2019-04-14T21:36:07.072Z,3.03
2019-04-14T21:38:59.346Z,3.00
2019-04-14T21:41:29.842Z,2.60
2019-04-14T21:43:58.943Z,3.03
2019-04-14T21:46:28.047Z,2.50
2019-04-14T21:48:57.135Z,2.90
2019-04-14T21:51:45.433Z,3.20
2019-04-14T21:54:14.623Z,3.00
2019-04-14T21:56:45.412Z,2.70
2019-04-14T21:59:19.670Z,2.63
2019-04-14T22:02:06.895Z,2.90
2019-04-14T22:04:58.588Z,2.47
2019-04-14T22:07:46.889Z,2.47
2019-04-14T22:10:20.875Z,3.10
2019-04-14T22:12:50.075Z,2.90
2019-04-14T22:15:19.248Z,2.70
2019-04-14T22:17:48.671Z,2.80
2019-04-14T22:20:17.759Z,2.80
2019-04-14T22:22:46.860Z,2.83
2019-04-14T22:25:15.951Z,3.80
2019-04-14T22:27:45.071Z,3.03
2019-04-14T22:30:14.360Z,6.33
2019-04-14T22:32:43.480Z,2.60
2019-04-14T22:35:13.807Z,2.63
2019-04-14T22:37:42.924Z,3.50
2019-04-14T22:40:12.196Z,3.00
2019-04-14T22:42:41.393Z,3.40
2019-04-14T22:45:10.656Z,3.60
2019-04-14T22:47:39.759Z,3.17
2019-04-14T22:50:09.021Z,3.27
2019-04-14T22:52:39.096Z,3.47
2019-04-14T22:55:08.351Z,3.23
2019-04-14T22:57:37.465Z,3.70
2019-04-14T23:00:08.097Z,3.90
2019-04-14T23:02:54.979Z,3.20
2019-04-14T23:05:35.767Z,3.47
2019-04-14T23:08:16.565Z,3.10
2019-04-14T23:11:07.599Z,3.47
2019-04-14T23:13:54.657Z,3.70
2019-04-14T23:16:34.758Z,3.20
2019-04-14T23:19:11.472Z,2.77
2019-04-14T23:21:44.737Z,2.67
2019-04-14T23:24:19.600Z,3.30
2019-04-14T23:26:52.971Z,3.20
2019-04-14T23:29:19.504Z,2.90
2019-04-14T23:31:48.616Z,2.70
2019-04-14T23:34:17.808Z,2.97
2019-04-14T23:36:46.908Z,3.40
2019-04-14T23:39:16.021Z,2.90
2019-04-14T23:41:45.108Z,2.93
2019-04-14T23:44:14.221Z,2.90
2019-04-14T23:46:43.375Z,2.93
2019-04-14T23:49:12.470Z,2.77
2019-04-14T23:51:41.557Z,2.97
2019-04-14T23:54:10.736Z,2.93
2019-04-14T23:56:39.823Z,2.87
2019-04-14T23:59:08.941Z,2.80
